Time;durP1;ratioP1;P1;durP2;ratioP2;P2;SDS_P1;SDS_P2;PMS_P1;PMS_P2;Temp;Humidity;BMP_temperature;BMP_pressure;BME280_temperature;BME280_humidity;BME280_pressure;Samples;Min_cycle;Max_cycle;Signal;HPM_P1;HPM_P2
2022/05/31 00:00:04;;;;;;;46.00;26.15;;;16.90;99.90;;;;;;5054376;28;20037;-45
2022/05/31 00:02:30;;;;;;;47.17;27.30;;;16.80;99.90;;;;;;5054557;28;20029;-45
2022/05/31 00:04:56;;;;;;;52.35;29.02;;;16.70;99.90;;;;;;5053087;28;20078;-45
2022/05/31 00:07:22;;;;;;;50.10;26.17;;;16.80;99.90;;;;;;5054463;28;20468;-45
2022/05/31 00:09:47;;;;;;;47.00;27.20;;;16.70;99.90;;;;;;5054288;28;20036;-45
2022/05/31 00:12:14;;;;;;;48.25;25.60;;;16.70;99.90;;;;;;5052386;28;20549;-45
2022/05/31 00:14:40;;;;;;;45.42;25.42;;;16.70;99.90;;;;;;5054202;28;20025;-45
2022/05/31 00:17:06;;;;;;;45.75;26.73;;;16.60;99.90;;;;;;5069049;28;20059;-45
2022/05/31 00:19:32;;;;;;;51.45;27.63;;;16.70;99.90;;;;;;5054146;28;20504;-45
2022/05/31 00:22:11;;;;;;;51.63;27.50;;;16.80;99.90;;;;;;5054084;28;20158;-45
2022/05/31 00:24:39;;;;;;;49.38;27.52;;;16.80;99.90;;;;;;5053418;28;20061;-45
2022/05/31 00:27:09;;;;;;;42.53;24.85;;;16.80;99.90;;;;;;5053911;28;20037;-45
2022/05/31 00:29:35;;;;;;;48.95;27.50;;;16.80;99.90;;;;;;5053773;28;20475;-45
2022/05/31 00:32:05;;;;;;;47.15;27.40;;;16.80;99.90;;;;;;5053910;28;20484;-45
2022/05/31 00:34:33;;;;;;;46.05;26.88;;;17.00;99.90;;;;;;5051898;28;20404;-44
2022/05/31 00:37:00;;;;;;;46.78;26.75;;;17.00;99.90;;;;;;5068617;28;20071;-44
2022/05/31 00:39:26;;;;;;;51.97;28.45;;;17.10;99.90;;;;;;5053919;28;20068;-45
2022/05/31 00:42:09;;;;;;;44.97;27.50;;;17.20;99.90;;;;;;5068624;28;20067;-45
2022/05/31 00:44:36;;;;;;;45.40;26.92;;;17.30;99.90;;;;;;5053744;28;20021;-45
2022/05/31 00:47:24;;;;;;;44.85;26.40;;;17.30;99.90;;;;;;5068495;28;20484;-45
2022/05/31 00:50:01;;;;;;;43.17;25.92;;;17.40;99.90;;;;;;5053584;28;20025;-45
2022/05/31 00:52:34;;;;;;;41.47;24.95;;;17.50;99.90;;;;;;5051297;28;20029;-45
2022/05/31 00:55:06;;;;;;;43.00;27.50;;;17.50;99.90;;;;;;5051318;28;20412;-45
2022/05/31 00:57:36;;;;;;;45.53;26.60;;;17.50;99.90;;;;;;5018195;28;20143;-45
2022/05/31 01:00:10;;;;;;;45.78;26.33;;;17.40;99.90;;;;;;5051104;28;20385;-45
2022/05/31 01:02:37;;;;;;;38.65;25.83;;;17.50;99.90;;;;;;5051235;28;20147;-45
2022/05/31 01:05:05;;;;;;;42.28;26.33;;;17.40;99.90;;;;;;5051117;28;20178;-45
2022/05/31 01:07:31;;;;;;;46.60;27.73;;;17.30;99.90;;;;;;4991588;28;20065;-45
2022/05/31 01:09:57;;;;;;;41.75;26.25;;;17.20;99.90;;;;;;4991835;28;20038;-45
2022/05/31 01:12:25;;;;;;;44.60;27.60;;;17.20;99.90;;;;;;4991711;28;20049;-45
2022/05/31 01:14:52;;;;;;;46.47;26.88;;;17.30;99.90;;;;;;4991854;28;20470;-45
2022/05/31 01:17:23;;;;;;;42.65;25.88;;;17.50;99.90;;;;;;4991677;28;20137;-45
2022/05/31 01:19:56;;;;;;;39.43;24.90;;;17.50;99.90;;;;;;4991678;28;20096;-45
2022/05/31 01:22:43;;;;;;;39.17;25.13;;;17.50;99.90;;;;;;4991647;28;20287;-45
2022/05/31 01:25:41;;;;;;;38.70;23.58;;;17.30;99.90;;;;;;4991542;28;20074;-45
2022/05/31 01:28:28;;;;;;;39.10;24.85;;;17.20;99.90;;;;;;4972025;28;20246;-45
2022/05/31 01:31:02;;;;;;;42.35;26.65;;;17.20;99.90;;;;;;4972247;28;20082;-45
2022/05/31 01:33:38;;;;;;;43.25;27.20;;;17.30;99.90;;;;;;4972238;28;20039;-45
2022/05/31 01:36:20;;;;;;;42.20;26.05;;;17.20;99.90;;;;;;4975735;28;20426;-45
2022/05/31 01:38:58;;;;;;;42.10;25.75;;;17.20;99.90;;;;;;4976041;28;20047;-45
2022/05/31 01:41:27;;;;;;;44.30;26.27;;;17.30;99.90;;;;;;4976238;28;20479;-44
2022/05/31 01:43:56;;;;;;;47.97;27.13;;;17.30;99.90;;;;;;4978610;28;20483;-45
2022/05/31 01:46:31;;;;;;;43.65;25.30;;;17.40;99.90;;;;;;5015127;28;20041;-45
2022/05/31 01:48:59;;;;;;;42.10;25.08;;;17.40;99.90;;;;;;5015101;28;20041;-45
2022/05/31 01:51:26;;;;;;;41.75;25.17;;;17.50;99.90;;;;;;5015063;28;20045;-45
2022/05/31 01:53:54;;;;;;;40.10;24.90;;;17.50;99.90;;;;;;5015091;28;20033;-45
2022/05/31 01:56:21;;;;;;;39.08;25.08;;;17.50;99.90;;;;;;5014954;28;20182;-45
2022/05/31 01:58:50;;;;;;;39.78;25.55;;;17.60;99.90;;;;;;5014858;28;20057;-45
2022/05/31 02:01:17;;;;;;;44.55;25.25;;;17.60;99.90;;;;;;5014831;28;20062;-45
2022/05/31 02:03:43;;;;;;;40.83;24.73;;;17.60;99.90;;;;;;5014932;28;20440;-45
2022/05/31 02:06:28;;;;;;;41.50;25.23;;;17.70;99.90;;;;;;5055409;28;20502;-45
2022/05/31 02:08:54;;;;;;;37.83;24.52;;;17.80;99.90;;;;;;5071356;28;20033;-45
2022/05/31 02:11:20;;;;;;;42.78;25.23;;;17.70;99.90;;;;;;5056489;28;20431;-45
2022/05/31 02:13:46;;;;;;;37.42;23.75;;;17.70;99.90;;;;;;5056194;28;20029;-45
2022/05/31 02:16:12;;;;;;;36.58;24.30;;;17.70;99.90;;;;;;5056767;28;20074;-44
2022/05/31 02:21:23;;;;;;;32.47;23.60;;;17.70;99.90;;;;;;5055107;28;20440;-45
2022/05/31 02:23:48;;;;;;;33.08;23.30;;;17.80;99.90;;;;;;5056404;28;20060;-45
2022/05/31 02:26:14;;;;;;;31.60;22.63;;;17.70;99.90;;;;;;5056312;28;20032;-45
2022/05/31 02:28:41;;;;;;;35.33;22.88;;;17.60;99.90;;;;;;5056022;28;20122;-45
2022/05/31 02:31:07;;;;;;;31.77;22.77;;;17.50;99.90;;;;;;5056141;28;20040;-45
2022/05/31 02:33:33;;;;;;;36.70;23.42;;;17.50;99.90;;;;;;5056026;28;20025;-44
2022/05/31 02:35:59;;;;;;;30.30;21.77;;;17.50;99.90;;;;;;5056096;28;20036;-45
2022/05/31 02:38:24;;;;;;;36.45;24.35;;;17.30;99.90;;;;;;5054110;28;20040;-45
2022/05/31 02:40:50;;;;;;;39.83;24.15;;;17.30;99.90;;;;;;5056021;28;20115;-44
2022/05/31 02:43:16;;;;;;;38.75;24.65;;;17.10;99.90;;;;;;5021011;28;20033;-45
2022/05/31 02:45:42;;;;;;;37.83;24.50;;;17.10;99.90;;;;;;5055483;28;20037;-44
2022/05/31 02:48:08;;;;;;;35.65;23.95;;;17.00;99.90;;;;;;5055577;28;20482;-45
2022/05/31 02:50:39;;;;;;;36.42;24.15;;;16.90;99.90;;;;;;5070735;28;20123;-45
2022/05/31 02:53:05;;;;;;;36.75;23.77;;;16.90;99.90;;;;;;5055896;28;20043;-45
2022/05/31 02:55:30;;;;;;;29.83;21.83;;;17.00;99.90;;;;;;5055653;28;20052;-44
2022/05/31 02:57:56;;;;;;;35.25;23.05;;;17.00;99.90;;;;;;5055728;28;20033;-45
2022/05/31 03:00:22;;;;;;;38.28;23.15;;;17.20;99.90;;;;;;5055900;28;20112;-45
2022/05/31 03:02:47;;;;;;;30.92;21.90;;;17.30;99.90;;;;;;5055605;28;20032;-45
2022/05/31 03:05:13;;;;;;;32.22;21.13;;;17.30;99.90;;;;;;5055476;28;20025;-45
2022/05/31 03:07:39;;;;;;;33.03;21.63;;;17.40;99.90;;;;;;5055488;28;20048;-45
2022/05/31 03:10:05;;;;;;;29.23;21.77;;;17.30;99.90;;;;;;5055577;28;20025;-44
2022/05/31 03:12:32;;;;;;;26.67;19.73;;;17.40;99.90;;;;;;5055377;28;20057;-45
2022/05/31 03:15:07;;;;;;;31.88;21.80;;;17.10;99.90;;;;;;5055266;28;20036;-44
2022/05/31 03:17:37;;;;;;;27.90;20.40;;;16.90;99.90;;;;;;5053430;28;20487;-45
2022/05/31 03:20:09;;;;;;;30.35;21.77;;;16.70;99.90;;;;;;5055290;28;20037;-44
2022/05/31 03:22:44;;;;;;;31.45;22.80;;;16.60;99.90;;;;;;5055144;28;20052;-45
2022/05/31 03:25:16;;;;;;;32.75;22.58;;;16.80;99.90;;;;;;5055249;28;20029;-45
2022/05/31 03:27:43;;;;;;;29.65;22.45;;;16.80;99.90;;;;;;5054857;28;20033;-46
2022/05/31 03:30:09;;;;;;;33.50;24.77;;;16.80;99.90;;;;;;5055173;28;20488;-45
2022/05/31 03:32:36;;;;;;;33.25;23.95;;;16.90;99.90;;;;;;4987227;28;20032;-45
2022/05/31 03:35:02;;;;;;;33.80;25.13;;;16.80;99.90;;;;;;5055125;28;20032;-45
2022/05/31 03:37:28;;;;;;;33.83;24.35;;;16.90;99.90;;;;;;5054902;28;20024;-45
2022/05/31 03:39:54;;;;;;;37.55;25.27;;;16.90;99.90;;;;;;5054764;28;20091;-44
2022/05/31 03:42:19;;;;;;;36.33;25.92;;;16.90;99.90;;;;;;5054798;28;20036;-45
2022/05/31 03:44:45;;;;;;;34.60;25.98;;;17.00;99.90;;;;;;5054745;28;20025;-45
2022/05/31 03:47:11;;;;;;;31.33;24.45;;;17.00;99.90;;;;;;5054941;28;20111;-45
2022/05/31 03:49:37;;;;;;;36.15;26.08;;;17.10;99.90;;;;;;5054777;28;20047;-45
2022/05/31 03:52:03;;;;;;;32.42;25.15;;;16.90;99.90;;;;;;5054815;28;20033;-45
2022/05/31 03:54:30;;;;;;;37.45;25.63;;;17.10;99.90;;;;;;5019504;28;20037;-45
2022/05/31 03:56:56;;;;;;;35.50;25.85;;;17.10;99.90;;;;;;5054487;28;20037;-45
2022/05/31 03:59:22;;;;;;;36.75;25.73;;;17.10;99.90;;;;;;5053385;28;20036;-45
2022/05/31 04:01:48;;;;;;;38.83;26.17;;;17.10;99.90;;;;;;5069349;28;20037;-45
2022/05/31 04:04:13;;;;;;;34.75;24.25;;;17.10;99.90;;;;;;5054393;28;20384;-45
2022/05/31 04:06:39;;;;;;;39.13;26.77;;;17.00;99.90;;;;;;5019283;28;20044;-45
2022/05/31 04:09:05;;;;;;;40.00;28.88;;;17.00;99.90;;;;;;5019226;28;20528;-45
2022/05/31 04:11:31;;;;;;;36.85;27.02;;;17.00;99.90;;;;;;5052340;28;20044;-45
2022/05/31 04:13:57;;;;;;;41.35;28.30;;;17.10;99.90;;;;;;5054264;28;20139;-45
2022/05/31 04:16:26;;;;;;;33.28;27.35;;;17.20;99.90;;;;;;5054554;28;20036;-45
2022/05/31 04:18:52;;;;;;;37.78;28.73;;;17.40;99.90;;;;;;5053919;28;20040;-45
2022/05/31 04:21:19;;;;;;;37.75;26.98;;;17.40;99.90;;;;;;5054075;28;20036;-45
2022/05/31 04:23:58;;;;;;;34.85;27.98;;;17.50;99.90;;;;;;5054315;28;20439;-45
2022/05/31 04:26:26;;;;;;;32.83;25.13;;;17.50;99.90;;;;;;5053957;28;20139;-45
2022/05/31 04:28:52;;;;;;;34.63;26.83;;;17.60;99.90;;;;;;5040476;28;20453;-45
2022/05/31 04:31:18;;;;;;;37.72;27.08;;;17.50;99.90;;;;;;5033971;28;20033;-45
2022/05/31 04:33:43;;;;;;;40.40;28.02;;;17.60;99.90;;;;;;5032173;28;20033;-45
2022/05/31 04:36:12;;;;;;;42.88;30.30;;;17.40;99.90;;;;;;5031969;28;20043;-45
2022/05/31 04:38:39;;;;;;;44.22;29.05;;;17.40;99.90;;;;;;5033507;28;20033;-45
2022/05/31 04:41:06;;;;;;;45.42;30.55;;;17.40;99.90;;;;;;5033724;28;20033;-45
2022/05/31 04:43:34;;;;;;;40.22;29.88;;;17.50;99.90;;;;;;5033732;28;20030;-45
2022/05/31 04:46:13;;;;;;;38.63;28.25;;;17.50;99.90;;;;;;5033767;28;20029;-45
2022/05/31 04:48:39;;;;;;;41.95;28.92;;;17.70;99.90;;;;;;5031809;28;20108;-45
2022/05/31 04:51:05;;;;;;;41.30;27.60;;;17.70;99.90;;;;;;5033667;28;20564;-45
2022/05/31 04:53:32;;;;;;;45.28;28.58;;;17.70;99.90;;;;;;5033719;28;20036;-45
2022/05/31 04:56:06;;;;;;;37.47;28.05;;;17.80;99.90;;;;;;5033808;28;20035;-45
2022/05/31 04:58:32;;;;;;;39.38;28.98;;;17.90;99.90;;;;;;5033408;28;20029;-45
2022/05/31 05:01:01;;;;;;;32.00;25.20;;;18.00;99.90;;;;;;5033074;28;20029;-45
2022/05/31 05:03:29;;;;;;;36.63;27.23;;;18.10;99.90;;;;;;5050598;28;20509;-45
2022/05/31 05:05:59;;;;;;;41.97;28.38;;;18.10;99.90;;;;;;5052257;28;20033;-45
2022/05/31 05:08:25;;;;;;;35.72;27.65;;;18.20;99.90;;;;;;5045961;28;20065;-45
2022/05/31 05:10:50;;;;;;;33.83;25.52;;;18.20;99.90;;;;;;5033168;28;20053;-45
2022/05/31 05:13:16;;;;;;;35.90;26.23;;;18.30;99.90;;;;;;5047859;28;20112;-45
2022/05/31 05:15:42;;;;;;;36.67;26.42;;;18.30;99.90;;;;;;5048738;28;20033;-45
2022/05/31 05:18:09;;;;;;;30.70;23.90;;;18.30;99.90;;;;;;5048465;28;20043;-45
2022/05/31 05:20:39;;;;;;;28.02;23.92;;;18.30;99.90;;;;;;5036957;28;20444;-45
2022/05/31 05:23:08;;;;;;;31.80;23.25;;;18.20;99.90;;;;;;5053066;28;20025;-45
2022/05/31 05:25:34;;;;;;;29.17;23.90;;;18.20;99.90;;;;;;5015234;28;20128;-45
2022/05/31 05:27:59;;;;;;;27.75;23.25;;;18.30;99.90;;;;;;5031085;28;20124;-45
2022/05/31 05:30:40;;;;;;;28.95;24.23;;;18.40;99.90;;;;;;5031204;28;20060;-45
2022/05/31 05:33:07;;;;;;;30.63;24.20;;;18.40;99.90;;;;;;5030089;28;20091;-46
2022/05/31 05:35:33;;;;;;;32.30;24.85;;;18.40;99.90;;;;;;5020312;28;20362;-45
2022/05/31 05:38:00;;;;;;;30.88;24.23;;;18.30;99.90;;;;;;5026329;28;20070;-45
2022/05/31 05:40:26;;;;;;;35.58;26.60;;;18.20;99.90;;;;;;5013976;28;20049;-45
2022/05/31 05:42:51;;;;;;;30.33;25.08;;;18.10;99.90;;;;;;5033100;28;20450;-45
2022/05/31 05:45:18;;;;;;;31.50;24.92;;;17.90;99.90;;;;;;5046823;28;20044;-46
2022/05/31 05:47:45;;;;;;;32.03;25.20;;;17.90;99.90;;;;;;5032791;28;20064;-45
2022/05/31 05:50:11;;;;;;;31.27;24.75;;;18.10;99.90;;;;;;5032891;28;20034;-45
2022/05/31 05:52:39;;;;;;;27.98;22.98;;;18.10;99.90;;;;;;5024279;28;20030;-45
2022/05/31 05:55:06;;;;;;;30.48;22.85;;;18.20;99.90;;;;;;5013262;28;20058;-45
2022/05/31 05:57:31;;;;;;;33.65;26.33;;;17.90;99.90;;;;;;5013277;28;20034;-45
2022/05/31 05:59:57;;;;;;;31.80;23.25;;;17.70;99.90;;;;;;5012988;28;20092;-45
2022/05/31 06:02:29;;;;;;;31.38;22.40;;;17.80;99.90;;;;;;5024419;28;20496;-45
2022/05/31 06:05:17;;;;;;;31.27;19.73;;;17.90;99.90;;;;;;5016442;28;20095;-45
2022/05/31 06:07:45;;;;;;;27.98;19.23;;;17.70;99.90;;;;;;5054668;28;20037;-45
2022/05/31 06:10:39;;;;;;;33.03;19.35;;;17.50;99.90;;;;;;5013185;28;20030;-45
2022/05/31 06:13:21;;;;;;;27.48;19.02;;;17.40;99.90;;;;;;5031354;28;20407;-45
2022/05/31 06:15:51;;;;;;;26.65;19.30;;;17.80;99.90;;;;;;5032760;28;20554;-45
2022/05/31 06:18:22;;;;;;;29.90;20.05;;;18.00;99.90;;;;;;5015797;28;20033;-45
2022/05/31 06:20:55;;;;;;;30.15;20.42;;;18.00;99.90;;;;;;5026312;28;20030;-45
2022/05/31 06:23:21;;;;;;;27.50;19.83;;;17.90;99.90;;;;;;5016362;28;20026;-46
2022/05/31 06:25:47;;;;;;;28.42;19.33;;;18.00;99.90;;;;;;5022052;28;20437;-45
2022/05/31 06:28:12;;;;;;;25.75;20.30;;;17.80;99.90;;;;;;5029523;28;20049;-45
2022/05/31 06:30:38;;;;;;;27.42;19.90;;;17.80;99.90;;;;;;5046944;28;20056;-45
2022/05/31 06:33:05;;;;;;;26.98;20.58;;;17.60;99.90;;;;;;5023693;28;20076;-45
2022/05/31 06:35:31;;;;;;;31.27;21.77;;;17.60;99.90;;;;;;5033217;28;20496;-45
2022/05/31 06:37:57;;;;;;;31.65;22.88;;;17.80;99.90;;;;;;5034349;28;20505;-45
2022/05/31 06:40:23;;;;;;;29.35;22.65;;;17.80;99.90;;;;;;5034107;28;20140;-45
2022/05/31 06:42:49;;;;;;;35.80;22.85;;;18.00;99.90;;;;;;5036053;28;20111;-45
2022/05/31 06:45:14;;;;;;;33.40;22.52;;;18.10;99.90;;;;;;5030333;28;20029;-45
2022/05/31 06:47:40;;;;;;;31.20;21.40;;;18.20;99.90;;;;;;5033393;28;20033;-45
2022/05/31 06:50:07;;;;;;;34.63;21.98;;;18.20;99.90;;;;;;5033433;28;20045;-45
2022/05/31 06:58:02;;;;;;;31.23;23.17;;;18.20;99.90;;;;;;5031254;28;20040;-45
2022/05/31 07:00:27;;;;;;;32.17;23.02;;;17.90;99.90;;;;;;5015747;28;20049;-45
2022/05/31 07:02:55;;;;;;;36.20;25.95;;;17.80;99.90;;;;;;5033551;28;20485;-45
2022/05/31 07:05:22;;;;;;;37.08;25.55;;;17.70;99.90;;;;;;5049775;28;20397;-44
2022/05/31 07:07:48;;;;;;;34.38;26.05;;;17.70;99.90;;;;;;5019267;28;20069;-46
2022/05/31 07:10:14;;;;;;;33.53;23.05;;;17.90;99.90;;;;;;5013968;28;20563;-45
2022/05/31 07:12:41;;;;;;;32.92;23.35;;;18.10;99.90;;;;;;5032774;28;20156;-45
2022/05/31 07:15:08;;;;;;;28.83;22.23;;;18.30;99.90;;;;;;5030531;28;20052;-44
2022/05/31 07:17:35;;;;;;;34.13;24.60;;;18.40;99.90;;;;;;5032906;28;20484;-45
2022/05/31 07:20:02;;;;;;;35.55;24.83;;;18.50;99.90;;;;;;5032654;28;20416;-45
2022/05/31 07:22:28;;;;;;;39.08;27.63;;;18.50;99.90;;;;;;5012777;28;20049;-48
2022/05/31 07:24:54;;;;;;;36.40;25.50;;;18.50;99.90;;;;;;4993827;28;20470;-45
2022/05/31 07:27:19;;;;;;;37.08;27.17;;;18.50;99.90;;;;;;4988655;28;20085;-45
2022/05/31 07:29:45;;;;;;;41.00;28.13;;;18.50;99.90;;;;;;4997969;28;20045;-45
2022/05/31 07:32:11;;;;;;;38.88;27.05;;;18.60;99.90;;;;;;4982749;28;20114;-44
2022/05/31 07:34:37;;;;;;;36.90;27.38;;;18.60;99.90;;;;;;5006037;28;20420;-45
2022/05/31 07:37:03;;;;;;;42.22;27.95;;;18.60;99.90;;;;;;5008465;28;20029;-44
2022/05/31 07:39:29;;;;;;;40.53;28.33;;;18.70;99.90;;;;;;5006884;28;20076;-44
2022/05/31 07:41:56;;;;;;;40.72;29.00;;;18.60;99.90;;;;;;5008472;28;20525;-44
2022/05/31 07:44:23;;;;;;;37.13;27.60;;;18.20;99.90;;;;;;5007136;28;20053;-44
2022/05/31 07:46:49;;;;;;;42.60;27.75;;;17.90;99.90;;;;;;5011261;28;20034;-44
2022/05/31 07:49:15;;;;;;;42.15;29.50;;;17.60;99.90;;;;;;5011736;28;20068;-44
2022/05/31 07:51:41;;;;;;;48.35;31.25;;;17.60;99.90;;;;;;5010649;28;20124;-44
2022/05/31 07:54:07;;;;;;;40.88;29.55;;;17.60;99.90;;;;;;5009623;28;20030;-44
2022/05/31 07:56:33;;;;;;;42.45;29.27;;;17.70;99.90;;;;;;5021862;28;20044;-44
2022/05/31 07:58:59;;;;;;;39.88;27.85;;;17.60;99.90;;;;;;5023593;28;20091;-44
2022/05/31 08:01:25;;;;;;;34.30;19.17;;;17.50;99.90;;;;;;5020768;28;20381;-44
2022/05/31 08:03:54;;;;;;;35.83;24.02;;;17.20;99.90;;;;;;5025814;28;20021;-44
2022/05/31 08:06:22;;;;;;;31.20;20.90;;;17.20;99.90;;;;;;5056762;28;20041;-44
2022/05/31 08:08:49;;;;;;;30.70;18.20;;;16.90;99.90;;;;;;5028840;28;20183;-44
2022/05/31 08:11:24;;;;;;;30.58;22.08;;;;;;;;;;5018680;28;20022;-45
2022/05/31 08:13:51;;;;;;;37.92;25.33;;;;;;;;;;5025577;28;20159;-44
2022/05/31 08:16:18;;;;;;;46.50;29.58;;;;;;;;;;5029795;28;20021;-44
2022/05/31 08:18:44;;;;;;;35.63;23.58;;;;;;;;;;5022496;28;20037;-44
2022/05/31 08:21:15;;;;;;;44.55;30.13;;;;;;;;;;5021121;28;20365;-45
2022/05/31 08:23:42;;;;;;;30.30;22.48;;;;;;;;;;5027891;28;20114;-45
2022/05/31 08:26:08;;;;;;;36.17;24.27;;;;;;;;;;5030349;28;20045;-44
2022/05/31 08:28:35;;;;;;;37.28;25.55;;;;;;;;;;5017226;28;20038;-45
2022/05/31 08:31:04;;;;;;;32.95;23.10;;;16.60;99.90;;;;;;5027820;28;20440;-44
2022/05/31 08:33:30;;;;;;;30.15;20.85;;;16.70;99.90;;;;;;5027098;28;20061;-47
2022/05/31 08:35:57;;;;;;;39.75;26.10;;;16.70;99.90;;;;;;5019203;28;20069;-45
2022/05/31 08:38:23;;;;;;;31.38;20.73;;;16.70;99.90;;;;;;5031360;28;20037;-45
2022/05/31 08:41:14;;;;;;;43.50;28.17;;;16.70;99.90;;;;;;5025518;28;20421;-45
2022/05/31 08:43:45;;;;;;;41.97;29.17;;;16.80;99.90;;;;;;5020083;28;20034;-45
2022/05/31 08:46:29;;;;;;;37.75;26.45;;;16.80;99.90;;;;;;5030048;28;20032;-44
2022/05/31 08:49:00;;;;;;;43.78;29.15;;;16.90;99.90;;;;;;5020188;28;20034;-45
2022/05/31 08:51:55;;;;;;;41.50;29.63;;;17.10;99.90;;;;;;5021717;28;20053;-45
2022/05/31 08:57:41;;;;;;;35.38;23.00;;;17.50;99.90;;;;;;5026014;28;20099;-45
2022/05/31 09:00:17;;;;;;;33.67;22.80;;;17.50;99.90;;;;;;5018436;28;20041;-45
2022/05/31 09:03:04;;;;;;;38.80;28.92;;;17.50;99.90;;;;;;5019081;28;20029;-45
2022/05/31 09:05:56;;;;;;;38.08;27.20;;;18.00;99.90;;;;;;5044180;28;20471;-45
2022/05/31 09:08:44;;;;;;;34.55;26.45;;;18.40;99.90;;;;;;5014435;28;20478;-45
2022/05/31 09:11:13;;;;;;;32.88;26.30;;;18.90;99.90;;;;;;5013981;28;20107;-45
2022/05/31 09:14:02;;;;;;;30.45;25.52;;;19.40;99.90;;;;;;5028425;28;20049;-45
2022/05/31 09:16:30;;;;;;;27.80;21.83;;;19.60;99.90;;;;;;5021574;28;20034;-45
2022/05/31 09:18:58;;;;;;;29.60;22.55;;;;;;;;;;5015791;28;20046;-45
2022/05/31 09:21:25;;;;;;;28.15;22.25;;;;;;;;;;5014439;28;20026;-45
2022/05/31 09:23:52;;;;;;;25.65;17.70;;;21.40;99.90;;;;;;5050133;28;20067;-45
2022/05/31 09:26:42;;;;;;;26.80;22.30;;;21.00;99.90;;;;;;5019695;28;20370;-45
2022/05/31 09:29:14;;;;;;;21.63;17.85;;;21.50;99.90;;;;;;5024501;28;20139;-45
2022/05/31 09:32:09;;;;;;;25.13;19.65;;;21.60;99.90;;;;;;5023349;28;20045;-45
2022/05/31 09:34:34;;;;;;;21.45;17.88;;;21.60;99.90;;;;;;5021306;28;20053;-45
2022/05/31 09:37:11;;;;;;;18.27;15.02;;;21.80;99.90;;;;;;5015037;28;20057;-45
2022/05/31 09:40:05;;;;;;;18.77;15.45;;;21.80;99.90;;;;;;5023218;28;20105;-45
2022/05/31 09:42:39;;;;;;;15.80;12.20;;;;;;;;;;5042833;28;20041;-45
2022/05/31 09:45:12;;;;;;;15.75;13.50;;;22.40;99.90;;;;;;5020898;28;20400;-45
2022/05/31 09:47:38;;;;;;;12.73;9.98;;;22.50;99.90;;;;;;5023451;28;20088;-45
2022/05/31 09:50:05;;;;;;;13.20;9.23;;;21.40;99.90;;;;;;5027984;28;20108;-45
2022/05/31 09:52:47;;;;;;;15.05;12.02;;;21.30;99.90;;;;;;5022267;28;20482;-45
2022/05/31 09:58:11;;;;;;;9.02;7.47;;;21.50;99.90;;;;;;5020880;28;20432;-45
2022/05/31 10:00:57;;;;;;;18.88;14.52;;;21.30;99.90;;;;;;5028954;28;20133;-46
2022/05/31 10:03:38;;;;;;;13.38;10.48;;;22.10;99.90;;;;;;5031143;28;20120;-45
2022/05/31 10:06:15;;;;;;;12.07;10.77;;;22.10;99.90;;;;;;5023065;28;20091;-45
2022/05/31 10:08:42;;;;;;;13.57;12.18;;;21.50;99.90;;;;;;5027445;28;20030;-45
2022/05/31 10:11:21;;;;;;;12.48;11.13;;;21.90;99.90;;;;;;5039366;28;20049;-46
2022/05/31 10:14:06;;;;;;;13.38;10.48;;;22.40;99.90;;;;;;5025563;28;20479;-46
2022/05/31 10:16:35;;;;;;;13.50;9.98;;;;;;;;;;5027660;28;20479;-45
2022/05/31 10:19:10;;;;;;;13.60;10.38;;;23.40;99.90;;;;;;5026006;28;20459;-45
2022/05/31 10:21:36;;;;;;;11.57;10.07;;;;;;;;;;5041338;28;20050;-45
2022/05/31 10:24:20;;;;;;;14.70;10.93;;;23.80;99.90;;;;;;5023968;28;20056;-50
2022/05/31 10:27:07;;;;;;;12.95;10.88;;;;;;;;;;5026692;28;20124;-44
2022/05/31 10:29:36;;;;;;;15.00;11.70;;;;;;;;;;5022809;28;20050;-46
2022/05/31 10:32:21;;;;;;;16.77;10.70;;;;;;;;;;5042836;28;20045;-45
2022/05/31 10:34:47;;;;;;;11.30;9.98;;;24.10;99.90;;;;;;5033414;28;20029;-47
2022/05/31 10:37:24;;;;;;;13.20;11.68;;;;;;;;;;5022109;28;20438;-45
2022/05/31 10:40:11;;;;;;;14.40;12.80;;;;;;;;;;5025852;28;20041;-45
2022/05/31 10:42:39;;;;;;;14.07;12.57;;;;;;;;;;5022797;28;20119;-45
2022/05/31 10:45:07;;;;;;;13.40;12.10;;;;;;;;;;5023416;28;20033;-45
2022/05/31 10:47:34;;;;;;;14.35;10.93;;;;;;;;;;5027135;28;20157;-45
2022/05/31 10:50:02;;;;;;;18.02;12.40;;;26.10;99.90;;;;;;5025676;28;20022;-46
2022/05/31 10:52:46;;;;;;;13.20;10.48;;;26.20;99.90;;;;;;5011439;28;20061;-46
2022/05/31 10:55:31;;;;;;;12.70;10.60;;;;;;;;;;5028198;28;20037;-45
2022/05/31 10:58:09;;;;;;;12.00;10.80;;;;;;;;;;5016114;28;20059;-45
2022/05/31 11:00:35;;;;;;;12.05;9.82;;;;;;;;;;5029058;28;20069;-46
2022/05/31 11:03:10;;;;;;;12.63;9.60;;;;;;;;;;5026039;28;20112;-45
2022/05/31 11:05:54;;;;;;;11.90;10.38;;;;;;;;;;5022876;28;20042;-45
2022/05/31 11:11:29;;;;;;;12.87;10.70;;;;;;;;;;5026667;28;20237;-45
2022/05/31 11:14:11;;;;;;;9.35;8.32;;;;;;;;;;5020424;28;20037;-46
2022/05/31 11:17:13;;;;;;;11.65;9.18;;;;;;;;;;5027943;28;20471;-45
2022/05/31 11:19:57;;;;;;;12.45;10.95;;;;;;;;;;4922067;29;20430;-45
2022/05/31 11:22:23;;;;;;;11.43;10.20;;;;;;;;;;4930909;29;20433;-45
2022/05/31 11:25:30;;;;;;;9.45;8.50;;;26.60;99.90;;;;;;4951842;29;20118;-45
2022/05/31 11:27:59;;;;;;;8.85;7.78;;;;;;;;;;4951020;29;20050;-46
2022/05/31 11:30:33;;;;;;;9.13;7.55;;;;;;;;;;4953933;29;20032;-45
2022/05/31 11:33:11;;;;;;;7.95;6.85;;;;;;;;;;4951768;29;20061;-45
2022/05/31 11:35:42;;;;;;;8.88;6.90;;;;;;;;;;4953787;28;20035;-45
2022/05/31 11:38:34;;;;;;;7.85;6.50;;;;;;;;;;4953283;28;20439;-46
2022/05/31 11:41:06;;;;;;;9.98;7.10;;;;;;;;;;4932028;29;20134;-45
2022/05/31 11:43:41;;;;;;;9.75;8.38;;;;;;;;;;4953458;29;20515;-45
2022/05/31 11:46:15;;;;;;;13.20;8.77;;;;;;;;;;4953633;29;20487;-45
2022/05/31 11:49:04;;;;;;;8.07;6.78;;;;;;;;;;4953594;29;20475;-46
2022/05/31 11:51:30;;;;;;;8.10;7.30;;;;;;;;;;4932049;29;20560;-45
2022/05/31 11:54:14;;;;;;;7.72;6.78;;;;;;;;;;4954732;28;20134;-45
2022/05/31 11:57:07;;;;;;;11.65;9.05;;;28.40;99.90;;;;;;4964222;28;20043;-45
2022/05/31 11:59:41;;;;;;;9.43;7.95;;;28.30;99.90;;;;;;4970811;28;20051;-45
2022/05/31 12:02:30;;;;;;;6.63;5.93;;;28.30;99.90;;;;;;4964848;28;20038;-45
2022/05/31 12:05:13;;;;;;;6.97;6.28;;;28.20;99.90;;;;;;4993759;28;20037;-45
2022/05/31 12:07:59;;;;;;;21.75;13.93;;;28.50;99.90;;;;;;5030032;28;20045;-46
2022/05/31 12:10:32;;;;;;;16.92;10.95;;;28.50;99.90;;;;;;5029708;28;20401;-45
2022/05/31 12:13:04;;;;;;;12.30;8.63;;;28.40;99.90;;;;;;5031541;28;20071;-45
2022/05/31 12:15:33;;;;;;;10.10;8.90;;;28.00;99.90;;;;;;5012637;28;20045;-45
2022/05/31 12:18:36;;;;;;;9.55;7.10;;;28.00;99.90;;;;;;5029722;28;20088;-45
2022/05/31 12:21:20;;;;;;;8.43;7.40;;;28.60;99.90;;;;;;5026534;28;20129;-45
2022/05/31 12:24:17;;;;;;;9.77;7.30;;;28.30;99.90;;;;;;5031508;28;20075;-46
2022/05/31 12:26:45;;;;;;;9.02;7.95;;;28.90;99.90;;;;;;5029655;28;20473;-46
2022/05/31 12:29:50;;;;;;;9.15;7.03;;;;;;;;;;5022292;28;20080;-46
2022/05/31 12:32:41;;;;;;;9.43;7.25;;;28.80;99.90;;;;;;5011297;28;20026;-45
2022/05/31 12:35:40;;;;;;;8.57;7.43;;;;;;;;;;4979424;28;20039;-45
2022/05/31 12:38:10;;;;;;;6.95;6.22;;;;;;;;;;4991860;28;20042;-45
2022/05/31 12:40:37;;;;;;;16.52;10.77;;;;;;;;;;4989218;28;20054;-45
2022/05/31 12:43:05;;;;;;;8.13;6.05;;;;;;;;;;4990964;28;20352;-45
2022/05/31 12:45:33;;;;;;;7.95;6.53;;;29.70;99.90;;;;;;4991880;28;20034;-45
2022/05/31 12:48:11;;;;;;;30.15;13.55;;;28.50;99.90;;;;;;4991201;28;20045;-45
2022/05/31 12:51:06;;;;;;;16.25;10.40;;;28.60;99.90;;;;;;4991908;28;20490;-45
2022/05/31 12:53:37;;;;;;;15.05;8.43;;;28.50;99.90;;;;;;4991110;28;20038;-45
2022/05/31 12:56:10;;;;;;;15.88;10.38;;;28.40;99.90;;;;;;4990748;28;20045;-45
2022/05/31 12:58:48;;;;;;;12.23;8.77;;;28.50;99.90;;;;;;4989376;28;20060;-45
2022/05/31 13:01:14;;;;;;;11.18;8.55;;;28.50;99.90;;;;;;4980539;28;20761;-45
2022/05/31 13:03:40;;;;;;;7.90;7.00;;;28.50;99.90;;;;;;5002186;28;20037;-46
2022/05/31 13:06:16;;;;;;;8.82;7.05;;;;;;;;;;5025136;28;20125;-45
2022/05/31 13:08:45;;;;;;;10.02;8.13;;;;;;;;;;5021231;28;20026;-45
2022/05/31 13:19:43;;;;;;;8.27;5.78;;;29.50;99.90;;;;;;5019739;28;20056;-45
2022/05/31 13:22:16;;;;;;;9.65;6.22;;;29.30;99.90;;;;;;5038254;28;20450;-46
2022/05/31 13:24:55;;;;;;;7.45;6.28;;;29.30;99.90;;;;;;5016218;28;20068;-45
2022/05/31 13:27:29;;;;;;;7.43;5.70;;;;;;;;;;5016440;28;20033;-45
2022/05/31 13:30:24;;;;;;;8.15;5.00;;;;;;;;;;5028115;28;20053;-45
2022/05/31 13:32:51;;;;;;;5.85;4.72;;;;;;;;;;5041497;28;20037;-45